Time;durP1;ratioP1;P1;durP2;ratioP2;P2;SDS_P1;SDS_P2;PMS_P1;PMS_P2;Temp;Humidity;BMP_temperature;BMP_pressure;BME280_temperature;BME280_humidity;BME280_pressure;Samples;Min_cycle;Max_cycle;Signal;HPM_P1;HPM_P2
2021/05/23 00:04:04;;;;;;;1999.90;999.90;;;;;;;13.70;62.46;100370.97;15845462;28;20048;-64
2021/05/23 00:11:37;;;;;;;1999.90;999.90;;;;;;;13.68;62.64;100375.31;15815341;28;20040;-63
2021/05/23 00:19:08;;;;;;;1999.90;999.90;;;;;;;13.47;63.04;100387.63;15812530;28;20127;-65
2021/05/23 00:26:41;;;;;;;1999.90;999.90;;;;;;;13.47;63.40;100392.41;15811024;28;20055;-62
2021/05/23 00:34:12;;;;;;;1999.90;999.90;;;;;;;13.43;63.17;100385.88;15811076;28;20054;-62
2021/05/23 00:41:45;;;;;;;1999.90;999.90;;;;;;;13.24;64.17;100397.81;15811416;28;20504;-62
2021/05/23 00:49:16;;;;;;;1999.90;999.90;;;;;;;13.27;63.28;100399.88;15808783;28;20123;-60
2021/05/23 00:56:49;;;;;;;1999.90;999.90;;;;;;;13.20;64.13;100405.28;15809286;28;20035;-63
2021/05/23 01:04:21;;;;;;;1999.90;999.90;;;;;;;13.01;64.43;100403.94;15810681;28;20036;-63
2021/05/23 01:12:37;;;;;;;1999.90;999.90;;;;;;;13.00;64.75;100416.31;15791945;28;20411;-63
2021/05/23 01:20:27;;;;;;;1999.90;999.90;;;;;;;12.81;65.26;100413.34;15791032;28;20588;-63
2021/05/23 01:28:00;;;;;;;1999.90;999.90;;;;;;;12.65;66.02;100418.91;15807056;28;20095;-60
2021/05/23 01:35:33;;;;;;;1999.90;999.90;;;;;;;12.49;66.92;100419.97;15808301;28;20140;-62
2021/05/23 01:43:08;;;;;;;1999.90;999.90;;;;;;;12.34;67.14;100429.91;15806881;28;20051;-62
2021/05/23 01:50:40;;;;;;;1999.90;999.90;;;;;;;12.28;67.54;100426.53;15805935;28;20044;-61
2021/05/23 01:58:13;;;;;;;1999.90;999.90;;;;;;;12.08;67.82;100424.69;15805850;28;20040;-61
2021/05/23 02:05:48;;;;;;;1999.90;999.90;;;;;;;11.89;68.52;100427.28;15805847;28;20048;-62
2021/05/23 02:13:21;;;;;;;1999.90;999.90;;;;;;;11.79;68.53;100425.72;15805753;28;20039;-62
2021/05/23 02:20:53;;;;;;;1999.90;999.90;;;;;;;11.79;68.75;100426.56;15805215;28;20110;-62
2021/05/23 02:28:25;;;;;;;1999.90;999.90;;;;;;;11.71;68.71;100433.03;15804571;28;20048;-61
2021/05/23 02:35:57;;;;;;;1999.90;999.90;;;;;;;11.43;70.25;100430.06;15804023;28;20067;-63
2021/05/23 02:43:31;;;;;;;1999.90;999.90;;;;;;;11.46;69.60;100437.78;15803152;28;20077;-62
2021/05/23 02:51:05;;;;;;;1999.90;999.90;;;;;;;11.23;70.69;100440.13;15804513;28;20576;-63
2021/05/23 02:58:37;;;;;;;1999.90;999.90;;;;;;;11.11;70.43;100437.31;15803229;28;20048;-62
2021/05/23 03:06:09;;;;;;;1999.90;999.90;;;;;;;10.94;70.71;100423.50;15806730;28;20048;-62
2021/05/23 03:13:41;;;;;;;1999.90;999.90;;;;;;;10.98;71.48;100427.25;15803224;28;20048;-61
2021/05/23 03:21:13;;;;;;;1999.90;999.90;;;;;;;10.95;71.30;100445.50;15802638;28;20052;-63
2021/05/23 03:28:46;;;;;;;1999.90;999.90;;;;;;;11.00;71.91;100450.06;15801231;28;20439;-61
2021/05/23 03:36:17;;;;;;;1999.90;999.90;;;;;;;11.07;71.85;100450.34;15784587;28;20142;-60
2021/05/23 03:43:50;;;;;;;1999.90;999.90;;;;;;;11.04;71.72;100437.03;15801917;28;20109;-60
2021/05/23 03:51:21;;;;;;;1999.90;999.90;;;;;;;11.16;71.20;100456.66;15801532;28;20044;-61
2021/05/23 03:58:55;;;;;;;1999.90;999.90;;;;;;;11.26;71.43;100466.59;15802208;28;20493;-63
2021/05/23 04:06:27;;;;;;;1999.90;999.90;;;;;;;11.21;71.87;100475.16;15799204;28;20048;-61
2021/05/23 04:14:00;;;;;;;1999.90;999.90;;;;;;;11.20;72.08;100493.06;15802406;28;20036;-62
2021/05/23 04:21:31;;;;;;;1999.90;999.90;;;;;;;11.41;71.86;100496.66;15801039;28;20044;-61
2021/05/23 04:29:04;;;;;;;1999.90;999.90;;;;;;;11.86;71.00;100509.84;15794949;28;20058;-62
2021/05/23 04:36:36;;;;;;;1999.90;999.90;;;;;;;12.09;70.24;100511.06;15793498;28;20528;-62
2021/05/23 04:44:08;;;;;;;1999.90;999.90;;;;;;;12.03;71.11;100520.00;15809888;28;20510;-63
2021/05/23 04:51:49;;;;;;;1999.90;999.90;;;;;;;12.65;69.43;100522.47;15811379;28;20056;-62
2021/05/23 04:59:21;;;;;;;1999.90;999.90;;;;;;;12.71;69.08;100537.03;15810600;28;20119;-61
2021/05/23 05:06:53;;;;;;;1999.90;999.90;;;;;;;12.90;68.70;100547.63;15809324;28;20055;-61
2021/05/23 05:14:25;;;;;;;1999.90;999.90;;;;;;;13.22;66.95;100555.03;15792664;28;20572;-62
2021/05/23 05:21:57;;;;;;;1999.90;999.90;;;;;;;13.49;66.42;100570.25;15809557;28;20047;-63
2021/05/23 05:29:29;;;;;;;1999.90;999.90;;;;;;;13.02;67.61;100581.19;15808804;28;20047;-63
2021/05/23 05:37:02;;;;;;;1999.90;999.90;;;;;;;13.24;67.27;100588.34;15809341;28;20050;-62
2021/05/23 05:44:35;;;;;;;1999.90;999.90;;;;;;;13.08;67.35;100587.38;15810145;28;20497;-63
2021/05/23 05:52:07;;;;;;;1999.90;999.90;;;;;;;12.99;67.85;100604.31;15807086;28;20052;-63
2021/05/23 05:59:39;;;;;;;1999.90;999.90;;;;;;;13.24;67.27;100608.75;15808172;28;20105;-63
2021/05/23 06:07:11;;;;;;;1999.90;999.90;;;;;;;13.00;70.15;100626.38;15805766;28;20062;-64
2021/05/23 06:14:44;;;;;;;1999.90;999.90;;;;;;;12.82;70.45;100624.16;15806702;28;20117;-63
2021/05/23 06:22:15;;;;;;;1999.90;999.90;;;;;;;12.88;70.14;100629.19;15807276;28;20435;-63
2021/05/23 06:29:48;;;;;;;1999.90;999.90;;;;;;;12.97;67.82;100638.28;15805938;28;20500;-62
2021/05/23 06:37:20;;;;;;;1999.90;999.90;;;;;;;13.11;67.99;100637.91;15806023;28;20098;-63
2021/05/23 06:44:52;;;;;;;1999.90;999.90;;;;;;;13.39;66.70;100637.22;15803417;28;20032;-63
2021/05/23 06:52:26;;;;;;;1999.90;999.90;;;;;;;13.75;65.04;100650.28;15804702;28;20566;-63
2021/05/23 06:59:58;;;;;;;1999.90;999.90;;;;;;;13.94;64.42;100636.41;15804439;28;20044;-63
2021/05/23 07:07:31;;;;;;;1999.90;999.90;;;;;;;15.23;62.47;100646.19;15803991;28;20048;-64
2021/05/23 07:15:06;;;;;;;1999.90;999.90;;;;;;;17.71;57.17;100637.06;15802280;28;20051;-64
2021/05/23 07:22:38;;;;;;;1999.90;999.90;;;;;;;18.98;52.17;100634.78;15803685;28;20047;-64
2021/05/23 07:30:12;;;;;;;1999.90;999.90;;;;;;;19.23;51.42;100659.59;15802600;28;20047;-62
2021/05/23 07:37:44;;;;;;;1999.90;999.90;;;;;;;18.07;51.60;100661.72;15803798;28;20097;-61
2021/05/23 07:45:18;;;;;;;1999.90;999.90;;;;;;;17.69;51.92;100665.66;15803386;28;20035;-64
2021/05/23 07:52:49;;;;;;;1999.90;999.90;;;;;;;19.05;48.36;100670.78;15804108;28;20044;-63
2021/05/23 08:00:22;;;;;;;1999.90;999.90;;;;;;;19.21;48.29;100670.50;15810408;28;20048;-63
2021/05/23 08:07:54;;;;;;;1999.90;999.90;;;;;;;16.83;53.56;100679.63;15815000;28;20052;-61
2021/05/23 08:15:26;;;;;;;1999.90;999.90;;;;;;;17.02;53.26;100685.19;15814912;28;20052;-61
2021/05/23 08:22:58;;;;;;;1999.90;999.90;;;;;;;17.21;52.27;100692.75;15813540;28;20048;-63
2021/05/23 08:30:30;;;;;;;1999.90;999.90;;;;;;;18.58;52.41;100706.25;15814333;28;20047;-63
2021/05/23 08:38:02;;;;;;;1999.90;999.90;;;;;;;18.62;50.25;100706.28;15813666;28;20454;-63
2021/05/23 08:45:34;;;;;;;1999.90;999.90;;;;;;;17.82;52.41;100725.50;15812897;28;20072;-63
2021/05/23 08:53:07;;;;;;;;;;;;;;;17.73;53.41;100736.28;15814167;28;20081;-63
2021/05/23 09:00:39;;;;;;;1999.90;999.90;;;;;;;18.49;50.26;100736.03;15813964;28;19920;-63
2021/05/23 09:08:13;;;;;;;1999.90;999.90;;;;;;;18.95;49.54;100743.00;15812722;28;20074;-63
2021/05/23 09:15:57;;;;;;;1999.90;999.90;;;;;;;18.56;52.52;100762.38;15813385;28;20101;-63
2021/05/23 09:23:39;;;;;;;1999.90;999.90;;;;;;;18.89;52.36;100750.22;15813020;28;20036;-63
2021/05/23 09:31:14;;;;;;;1999.90;999.90;;;;;;;19.96;49.85;100767.25;15796375;28;20043;-62
2021/05/23 09:38:54;;;;;;;1999.90;999.90;;;;;;;19.75;50.14;100779.25;15816137;28;20050;-63
2021/05/23 09:46:27;;;;;;;1999.90;999.90;;;;;;;19.41;48.83;100781.41;15819507;28;20080;-63
2021/05/23 09:54:00;;;;;;;1999.90;999.90;;;;;;;21.25;45.69;100778.59;15811982;28;20044;-62
2021/05/23 10:01:33;;;;;;;1999.90;999.90;;;;;;;19.74;45.66;100791.78;15809789;28;20447;-62
2021/05/23 10:09:07;;;;;;;1999.90;999.90;;;;;;;20.00;47.85;100791.53;15809375;28;20040;-62
2021/05/23 10:16:40;;;;;;;1999.90;999.90;;;;;;;22.39;42.91;100794.72;15807980;28;20558;-61
2021/05/23 10:24:11;;;;;;;;;;;;;;;21.53;44.65;100802.56;15810277;28;20043;-63
2021/05/23 10:31:44;;;;;;;1999.90;999.90;;;;;;;19.60;46.32;100807.47;15807518;28;19920;-61
2021/05/23 10:39:16;;;;;;;1999.90;999.90;;;;;;;19.49;46.19;100809.38;15808488;28;20059;-62
2021/05/23 10:46:50;;;;;;;1999.90;999.90;;;;;;;19.21;47.21;100809.09;15808117;28;20044;-64
2021/05/23 10:54:22;;;;;;;1999.90;999.90;;;;;;;18.23;49.17;100821.66;15807663;28;20520;-63
2021/05/23 11:01:55;;;;;;;1999.90;999.90;;;;;;;17.91;50.29;100821.19;15806935;28;20040;-62
2021/05/23 11:09:35;;;;;;;1999.90;999.90;;;;;;;19.03;49.35;100823.88;15784318;28;20054;-62
2021/05/23 11:17:09;;;;;;;1999.90;999.90;;;;;;;19.85;47.81;100837.97;15802784;28;20036;-62
2021/05/23 11:24:45;;;;;;;1999.90;999.90;;;;;;;19.49;48.83;100843.31;15801229;28;20074;-62
2021/05/23 11:32:18;;;;;;;1999.90;999.90;;;;;;;19.59;47.17;100850.28;15801093;28;20064;-61
2021/05/23 11:39:49;;;;;;;1999.90;999.90;;;;;;;21.22;45.86;100841.84;15783820;28;20056;-63
2021/05/23 11:47:22;;;;;;;1999.90;999.90;;;;;;;21.06;42.77;100852.78;15801336;28;20052;-63
2021/05/23 11:54:57;;;;;;;1999.90;999.90;;;;;;;20.26;46.67;100849.97;15801789;28;20073;-63
2021/05/23 12:02:30;;;;;;;1999.90;999.90;;;;;;;22.61;41.90;100857.97;15799958;28;20040;-63
2021/05/23 12:10:02;;;;;;;1999.90;999.90;;;;;;;23.43;40.03;100868.97;15799345;28;20040;-63
2021/05/23 12:17:38;;;;;;;1999.90;999.90;;;;;;;23.59;39.89;100861.56;15800598;28;20420;-63
2021/05/23 12:25:12;;;;;;;1999.90;999.90;;;;;;;24.86;36.75;100869.22;15800455;28;20040;-63
2021/05/23 12:32:47;;;;;;;1999.90;999.90;;;;;;;23.22;38.39;100858.53;15782570;28;20070;-63
2021/05/23 12:40:24;;;;;;;1999.90;999.90;;;;;;;24.10;36.18;100871.28;15801234;28;20615;-63
2021/05/23 12:47:56;;;;;;;1999.90;999.90;;;;;;;25.48;34.84;100885.09;15808486;28;20051;-63
2021/05/23 12:55:29;;;;;;;1999.90;999.90;;;;;;;27.42;33.40;100889.59;15811846;28;20044;-63
2021/05/23 13:03:06;;;;;;;1999.90;999.90;;;;;;;24.04;36.22;100887.22;15810421;28;20047;-63
2021/05/23 13:10:38;;;;;;;1999.90;999.90;;;;;;;22.91;37.54;100892.44;15809901;28;20108;-64
2021/05/23 13:18:11;;;;;;;1999.90;999.90;;;;;;;22.04;39.28;100903.56;15808844;28;20127;-63
2021/05/23 13:25:42;;;;;;;1999.90;999.90;;;;;;;21.07;41.28;100907.47;15809333;28;20071;-64
2021/05/23 13:33:14;;;;;;;1999.90;999.90;;;;;;;22.16;39.32;100912.53;15808831;28;20386;-62
2021/05/23 13:40:46;;;;;;;1999.90;999.90;;;;;;;22.05;39.05;100922.25;15808772;28;20040;-62
2021/05/23 13:48:18;;;;;;;1999.90;999.90;;;;;;;20.32;42.12;100924.91;15807296;28;20048;-62
2021/05/23 13:55:50;;;;;;;1999.90;999.90;;;;;;;20.16;42.21;100930.03;15788584;28;20044;-62
2021/05/23 14:03:24;;;;;;;1999.90;999.90;;;;;;;20.43;41.63;100937.16;15805217;28;20051;-63
2021/05/23 14:10:57;;;;;;;1999.90;999.90;;;;;;;20.16;42.69;100939.34;15805384;28;20428;-63
2021/05/23 14:18:30;;;;;;;1999.90;999.90;;;;;;;20.58;41.53;100943.72;15805561;28;20044;-63
2021/05/23 14:26:02;;;;;;;;;;;;;;;20.80;42.02;100949.50;15805674;28;20121;-63
2021/05/23 14:33:35;;;;;;;1999.90;999.90;;;;;;;21.20;44.71;100957.78;15803751;28;19958;-62
2021/05/23 14:41:08;;;;;;;1999.90;999.90;;;;;;;21.24;40.93;100963.47;15804421;28;20474;-62
2021/05/23 14:48:40;;;;;;;1999.90;999.90;;;;;;;20.50;43.62;100961.88;15805315;28;20044;-62
2021/05/23 14:56:12;;;;;;;1999.90;999.90;;;;;;;20.31;42.63;100968.59;15805630;28;20044;-65
2021/05/23 15:03:45;;;;;;;1999.90;999.90;;;;;;;19.46;45.59;100979.09;15803020;28;20669;-63
2021/05/23 15:11:16;;;;;;;;;;;;;;;19.50;45.34;100977.97;15801583;28;20412;-62
2021/05/23 15:18:49;;;;;;;1999.90;999.90;;;;;;;18.52;48.30;101014.97;15801542;28;19920;-62
2021/05/23 15:26:23;;;;;;;1999.90;999.90;;;;;;;17.34;54.05;101041.06;15801057;28;20109;-64
2021/05/23 15:33:55;;;;;;;1999.90;999.90;;;;;;;18.02;53.68;101057.31;15784008;28;20143;-62
2021/05/23 15:41:27;;;;;;;1999.90;999.90;;;;;;;18.57;54.35;101048.59;15802306;28;20048;-62
2021/05/23 15:48:59;;;;;;;1999.90;999.90;;;;;;;18.57;49.16;101040.09;15801460;28;20052;-60
2021/05/23 15:56:31;;;;;;;1999.90;999.90;;;;;;;18.27;49.48;101038.00;15801691;28;20044;-63
2021/05/23 16:04:04;;;;;;;1999.90;999.90;;;;;;;18.32;49.65;101036.84;15800448;28;20039;-63
2021/05/23 16:11:36;;;;;;;1999.90;999.90;;;;;;;18.65;47.42;101051.19;15800268;28;20504;-62
2021/05/23 16:19:09;;;;;;;1999.90;999.90;;;;;;;18.11;47.84;101054.25;15805738;28;20056;-60
2021/05/23 16:26:40;;;;;;;1999.90;999.90;;;;;;;18.18;48.91;101045.91;15795612;28;20067;-61
2021/05/23 16:34:13;;;;;;;1999.90;999.90;;;;;;;18.17;49.20;101045.09;15814000;28;20043;-63
2021/05/23 16:41:44;;;;;;;1999.90;999.90;;;;;;;18.01;49.36;101049.22;15812017;28;20048;-62
2021/05/23 16:49:17;;;;;;;1999.90;999.90;;;;;;;17.83;49.02;101044.09;15793218;28;20144;-61
2021/05/23 16:56:49;;;;;;;1999.90;999.90;;;;;;;17.87;49.29;101038.50;15810051;28;20036;-63
2021/05/23 17:04:21;;;;;;;1999.90;999.90;;;;;;;17.38;49.72;101041.13;15810378;28;20040;-63
2021/05/23 17:11:53;;;;;;;1999.90;999.90;;;;;;;17.40;47.42;101039.56;15807339;22;20085;-79
2021/05/23 17:19:26;;;;;;;1999.90;999.90;;;;;;;17.39;46.03;101045.56;15824992;28;20040;-80
2021/05/23 17:26:57;;;;;;;1999.90;999.90;;;;;;;17.37;45.50;101037.47;15774517;22;20032;-66
2021/05/23 17:34:30;;;;;;;1999.90;999.90;;;;;;;17.64;44.15;101043.28;15738417;28;20045;-66
2021/05/23 17:42:02;;;;;;;1999.90;999.90;;;;;;;17.43;44.59;101054.94;15738610;28;20193;-64
2021/05/23 17:49:34;;;;;;;1999.90;999.90;;;;;;;17.08;45.15;101066.25;15739358;28;20064;-65
2021/05/23 17:57:07;;;;;;;1999.90;999.90;;;;;;;17.15;46.52;101069.25;15737475;28;20040;-65
2021/05/23 18:04:42;;;;;;;1999.90;999.90;;;;;;;17.11;45.96;101079.63;15736226;28;20389;-64
2021/05/23 18:12:13;;;;;;;1999.90;999.90;;;;;;;17.15;46.34;101084.16;15737975;28;20055;-64
2021/05/23 18:19:46;;;;;;;1999.90;999.90;;;;;;;17.12;47.05;101090.53;15737874;28;20083;-65
2021/05/23 18:27:19;;;;;;;1999.90;999.90;;;;;;;16.95;47.34;101097.41;15737641;28;20409;-66
2021/05/23 18:34:52;;;;;;;1999.90;999.90;;;;;;;16.89;49.03;101101.69;15736546;28;20420;-64
2021/05/23 18:42:26;;;;;;;1999.90;999.90;;;;;;;16.68;48.31;101109.63;15737108;28;20179;-64
2021/05/23 18:50:02;;;;;;;1999.90;999.90;;;;;;;16.54;48.84;101114.88;15718011;28;20049;-64
2021/05/23 18:57:34;;;;;;;1999.90;999.90;;;;;;;16.43;49.26;101117.41;15735118;28;20440;-64
2021/05/23 19:05:08;;;;;;;1999.90;999.90;;;;;;;16.26;49.00;101137.50;15734433;28;20045;-64
2021/05/23 19:12:41;;;;;;;1999.90;999.90;;;;;;;15.89;49.99;101143.31;15718337;28;20052;-64
2021/05/23 19:20:17;;;;;;;1999.90;999.90;;;;;;;15.75;52.11;101152.19;15734293;28;20040;-63
2021/05/23 19:27:49;;;;;;;1999.90;999.90;;;;;;;15.34;53.07;101146.88;15733260;28;20040;-64
2021/05/23 19:35:25;;;;;;;1999.90;999.90;;;;;;;15.19;53.86;101168.09;15734717;28;20362;-64
2021/05/23 19:43:00;;;;;;;1999.90;999.90;;;;;;;15.11;54.43;101163.41;15732112;28;20055;-64
2021/05/23 19:50:34;;;;;;;1999.90;999.90;;;;;;;14.91;55.21;101180.06;15732232;28;20164;-64
2021/05/23 19:58:08;;;;;;;1999.90;999.90;;;;;;;14.72;54.17;101182.63;15743456;28;20238;-64
2021/05/23 20:05:42;;;;;;;1999.90;999.90;;;;;;;14.72;55.27;101191.06;15744673;28;20048;-63
2021/05/23 20:13:16;;;;;;;1999.90;999.90;;;;;;;14.56;55.04;101206.94;15744164;28;20055;-64
2021/05/23 20:20:51;;;;;;;1999.90;999.90;;;;;;;14.41;55.04;101200.00;15743940;28;20497;-64
2021/05/23 20:28:28;;;;;;;1999.90;999.90;;;;;;;14.30;56.04;101210.03;15742401;28;20412;-63
2021/05/23 20:36:09;;;;;;;1999.90;999.90;;;;;;;14.15;57.15;101206.69;15742579;28;20051;-64
2021/05/23 20:43:46;;;;;;;1999.90;999.90;;;;;;;14.11;56.74;101214.16;15742849;28;20048;-64
2021/05/23 20:51:24;;;;;;;1999.90;999.90;;;;;;;14.09;57.18;101226.91;15725037;28;20509;-65
2021/05/23 20:58:58;;;;;;;1999.90;999.90;;;;;;;13.65;58.86;101215.25;15742602;28;20044;-64
2021/05/23 21:06:33;;;;;;;1999.90;999.90;;;;;;;13.46;58.81;101237.31;15741977;28;20461;-63
2021/05/23 21:14:12;;;;;;;1999.90;999.90;;;;;;;13.60;57.83;101249.06;15740932;28;20044;-64
2021/05/23 21:21:46;;;;;;;1999.90;999.90;;;;;;;13.50;58.55;101244.69;15740113;28;20062;-65
2021/05/23 21:29:18;;;;;;;1999.90;999.90;;;;;;;13.30;59.61;101251.09;15739238;28;20067;-65
2021/05/23 21:36:51;;;;;;;1999.90;999.90;;;;;;;13.29;60.04;101253.06;15738387;28;20047;-65
2021/05/23 21:44:23;;;;;;;1999.90;999.90;;;;;;;13.19;60.40;101261.03;15739035;28;20489;-65
2021/05/23 21:51:55;;;;;;;1999.90;999.90;;;;;;;13.06;61.16;101262.88;15739752;28;20079;-65
2021/05/23 21:59:27;;;;;;;1999.90;999.90;;;;;;;12.94;62.17;101279.59;15739169;28;20052;-64
2021/05/23 22:06:59;;;;;;;1999.90;999.90;;;;;;;12.84;62.48;101279.94;15739321;28;20044;-63
2021/05/23 22:14:31;;;;;;;1999.90;999.90;;;;;;;12.72;62.78;101283.44;15736930;28;20044;-64
2021/05/23 22:22:04;;;;;;;1999.90;999.90;;;;;;;12.85;63.76;101295.59;15737943;28;20509;-64
2021/05/23 22:29:35;;;;;;;1999.90;999.90;;;;;;;12.83;64.18;101300.72;15736105;28;20056;-64
2021/05/23 22:37:08;;;;;;;1999.90;999.90;;;;;;;12.64;64.31;101303.88;15737081;28;20051;-64
2021/05/23 22:44:40;;;;;;;1999.90;999.90;;;;;;;12.47;64.74;101293.53;15736959;28;20117;-64
2021/05/23 22:52:12;;;;;;;1999.90;999.90;;;;;;;12.39;65.21;101311.97;15736181;28;20049;-64
2021/05/23 22:59:44;;;;;;;1999.90;999.90;;;;;;;12.25;66.27;101313.31;15736155;28;20504;-64
2021/05/23 23:07:17;;;;;;;1999.90;999.90;;;;;;;12.26;66.18;101317.75;15735587;28;20114;-64
2021/05/23 23:14:48;;;;;;;1999.90;999.90;;;;;;;12.31;66.49;101317.59;15734031;28;20037;-64
2021/05/23 23:22:21;;;;;;;1999.90;999.90;;;;;;;12.29;66.99;101320.72;15735825;28;20511;-63
2021/05/23 23:29:53;;;;;;;1999.90;999.90;;;;;;;12.34;66.84;101314.13;15786194;22;20132;-62
2021/05/23 23:37:25;;;;;;;1999.90;999.90;;;;;;;12.27;67.06;101313.81;15802593;28;20084;-61
2021/05/23 23:44:57;;;;;;;1999.90;999.90;;;;;;;12.12;67.35;101307.56;15784733;28;20044;-61
2021/05/23 23:52:30;;;;;;;1999.90;999.90;;;;;;;12.05;67.47;101307.22;15803161;28;20527;-62
